createdAt,value
2019-05-02T00:01:36.993Z,3.90
2019-05-02T00:04:05.669Z,3.80
2019-05-02T00:06:38.029Z,3.13
2019-05-02T00:09:10.947Z,4.50
2019-05-02T00:11:39.513Z,3.80
2019-05-02T00:14:08.808Z,3.60
2019-05-02T00:16:44.962Z,3.60
2019-05-02T00:19:14.249Z,4.83
2019-05-02T00:21:44.081Z,4.50
2019-05-02T00:24:13.538Z,3.70
2019-05-02T00:26:42.197Z,3.40
2019-05-02T00:29:10.957Z,4.50
2019-05-02T00:31:41.856Z,3.40
2019-05-02T00:34:11.603Z,3.83
2019-05-02T00:36:44.410Z,3.50
2019-05-02T00:39:13.886Z,3.33
2019-05-02T00:41:43.491Z,3.60
2019-05-02T00:44:12.356Z,3.70
2019-05-02T00:46:40.986Z,4.07
2019-05-02T00:49:09.686Z,3.77
2019-05-02T00:51:43.391Z,3.93
2019-05-02T00:54:11.792Z,3.00
2019-05-02T00:56:44.106Z,3.40
2019-05-02T00:59:13.628Z,4.30
2019-05-02T01:01:53.395Z,3.10
2019-05-02T01:04:32.634Z,4.00
2019-05-02T01:07:04.056Z,3.20
2019-05-02T01:09:33.224Z,3.07
2019-05-02T01:12:03.031Z,3.40
2019-05-02T01:14:33.255Z,3.23
2019-05-02T01:17:02.128Z,3.23
2019-05-02T01:19:31.017Z,3.80
2019-05-02T01:21:59.761Z,3.80
2019-05-02T01:24:28.482Z,4.13
2019-05-02T01:26:59.773Z,2.90
2019-05-02T01:29:31.751Z,3.23
2019-05-02T01:32:07.878Z,3.97
2019-05-02T01:34:40.899Z,3.93
2019-05-02T01:37:20.666Z,4.10
2019-05-02T01:39:44.177Z,3.73
2019-05-02T01:42:12.766Z,3.50
2019-05-02T01:44:41.385Z,2.80
2019-05-02T01:47:10.061Z,3.70
2019-05-02T01:49:38.675Z,4.03
2019-05-02T01:52:07.370Z,3.90
2019-05-02T01:54:36.062Z,3.90
2019-05-02T01:57:08.740Z,3.43
2019-05-02T01:59:35.215Z,3.73
2019-05-02T02:02:03.794Z,4.23
2019-05-02T02:04:32.476Z,4.30
2019-05-02T02:07:01.391Z,3.90
2019-05-02T02:09:30.048Z,4.23
2019-05-02T02:11:58.709Z,4.10
2019-05-02T02:14:27.348Z,4.20
2019-05-02T02:16:55.993Z,3.60
2019-05-02T02:19:28.863Z,3.97
2019-05-02T02:22:02.856Z,4.40
2019-05-02T02:24:31.045Z,4.13
2019-05-02T02:26:59.707Z,4.63
2019-05-02T02:29:28.389Z,3.10
2019-05-02T02:31:57.050Z,3.60
2019-05-02T02:34:28.983Z,3.63
2019-05-02T02:36:56.104Z,3.90
2019-05-02T02:39:24.763Z,4.20
2019-05-02T02:41:54.175Z,3.57
2019-05-02T02:44:39.716Z,3.87
2019-05-02T02:47:05.219Z,3.57
2019-05-02T02:49:33.995Z,3.50
2019-05-02T02:52:04.684Z,4.03
2019-05-02T02:54:36.479Z,3.70
2019-05-02T02:57:03.459Z,3.90
2019-05-02T02:59:32.058Z,3.90
2019-05-02T03:02:08.721Z,4.00
2019-05-02T03:04:31.082Z,3.33
2019-05-02T03:06:59.769Z,3.70
2019-05-02T03:09:29.075Z,3.80
2019-05-02T03:12:15.914Z,3.80
2019-05-02T03:14:47.229Z,3.40
2019-05-02T03:17:20.348Z,3.40
2019-05-02T03:19:46.688Z,3.70
2019-05-02T03:22:15.324Z,2.67
2019-05-02T03:24:46.643Z,3.90
2019-05-02T03:27:14.336Z,3.73
2019-05-02T03:29:44.428Z,3.37
2019-05-02T03:32:30.693Z,3.33
2019-05-02T03:34:51.785Z,3.60
2019-05-02T03:37:15.238Z,3.13
2019-05-02T03:39:49.305Z,3.80
2019-05-02T03:42:14.480Z,4.90
2019-05-02T03:44:55.166Z,4.17
2019-05-02T03:47:15.546Z,4.63
2019-05-02T03:49:49.022Z,4.13
2019-05-02T03:52:15.155Z,5.40
2019-05-02T03:54:50.281Z,4.43
2019-05-02T03:57:14.506Z,5.87
2019-05-02T03:59:43.205Z,5.70
2019-05-02T04:02:14.153Z,5.93
2019-05-02T04:04:42.785Z,4.60
2019-05-02T04:07:11.824Z,5.20
2019-05-02T04:09:42.511Z,4.20
2019-05-02T04:12:18.557Z,5.40
2019-05-02T04:14:41.421Z,3.80
2019-05-02T04:17:10.886Z,5.17
2019-05-02T04:19:39.857Z,4.73
2019-05-02T04:22:12.160Z,5.00
2019-05-02T04:24:39.546Z,3.67
2019-05-02T04:27:08.229Z,5.70
2019-05-02T04:29:36.932Z,3.40
2019-05-02T04:32:11.388Z,4.00
2019-05-02T04:34:36.017Z,4.23
2019-05-02T04:37:04.639Z,4.80
2019-05-02T04:39:33.308Z,4.83
2019-05-02T04:42:05.561Z,4.53
2019-05-02T04:44:44.206Z,5.50
2019-05-02T04:47:13.946Z,5.00
2019-05-02T04:49:35.899Z,6.20
2019-05-02T04:52:10.488Z,5.20
2019-05-02T04:54:33.922Z,5.53
2019-05-02T04:57:02.831Z,4.23
2019-05-02T04:59:33.306Z,5.07
2019-05-02T05:02:02.081Z,5.50
2019-05-02T05:04:33.112Z,5.57
2019-05-02T05:07:01.523Z,5.33
2019-05-02T05:09:30.325Z,4.17
2019-05-02T05:12:02.548Z,4.30
2019-05-02T05:14:31.357Z,4.37
2019-05-02T05:16:59.772Z,4.40
2019-05-02T05:19:32.650Z,4.00
2019-05-02T05:22:04.606Z,4.07
2019-05-02T05:24:40.616Z,3.77
2019-05-02T05:27:03.928Z,3.40
2019-05-02T05:29:34.169Z,3.67
2019-05-02T05:32:05.642Z,3.40
2019-05-02T05:34:33.194Z,3.90
2019-05-02T05:37:03.592Z,4.00
2019-05-02T05:39:32.158Z,4.87
2019-05-02T05:42:00.836Z,3.73
2019-05-02T05:44:32.549Z,4.40
2019-05-02T05:46:59.855Z,4.00
2019-05-02T05:49:28.464Z,3.90
2019-05-02T05:52:02.014Z,5.33
2019-05-02T05:54:28.297Z,4.60
2019-05-02T05:56:57.393Z,4.10
2019-05-02T05:59:28.310Z,3.67
2019-05-02T06:01:57.938Z,4.37
2019-05-02T06:04:32.584Z,3.77
2019-05-02T06:06:59.579Z,4.10
2019-05-02T06:09:31.050Z,5.10
2019-05-02T06:11:58.098Z,4.07
2019-05-02T06:14:26.775Z,3.77
2019-05-02T06:16:55.428Z,4.43
2019-05-02T06:19:24.116Z,3.60
2019-05-02T06:21:52.715Z,4.13
2019-05-02T06:24:21.394Z,4.73
2019-05-02T06:26:51.732Z,4.00
2019-05-02T06:29:21.118Z,3.43
2019-05-02T06:31:49.857Z,3.40
2019-05-02T06:34:18.587Z,4.50
2019-05-02T06:36:47.259Z,3.60
2019-05-02T06:39:20.255Z,3.80
2019-05-02T06:41:52.033Z,4.20
2019-05-02T06:44:23.712Z,4.20
2019-05-02T06:46:50.442Z,3.07
2019-05-02T06:49:24.205Z,3.97
2019-05-02T06:51:59.950Z,3.27
2019-05-02T06:54:28.590Z,3.80
2019-05-02T06:56:57.334Z,4.70
2019-05-02T06:59:26.027Z,3.53
2019-05-02T07:01:57.554Z,4.50
2019-05-02T07:04:25.167Z,4.30
2019-05-02T07:06:58.729Z,4.60
2019-05-02T07:09:24.606Z,3.90
2019-05-02T07:11:57.760Z,3.47
2019-05-02T07:14:25.587Z,4.37
2019-05-02T07:17:14.387Z,3.47
2019-05-02T07:19:47.677Z,3.20
2019-05-02T07:22:16.311Z,3.30
2019-05-02T07:24:45.009Z,5.00
2019-05-02T07:27:13.682Z,3.67
2019-05-02T07:29:42.348Z,3.20
2019-05-02T07:32:11.377Z,4.30
2019-05-02T07:34:44.236Z,3.33
2019-05-02T07:37:12.661Z,2.93
2019-05-02T07:39:42.181Z,5.03
2019-05-02T07:42:10.925Z,3.70
2019-05-02T07:44:44.084Z,3.90
2019-05-02T07:47:12.720Z,3.17
2019-05-02T07:49:41.379Z,3.80
2019-05-02T07:52:10.003Z,3.97
2019-05-02T07:54:38.622Z,3.43
2019-05-02T07:57:07.399Z,2.90
2019-05-02T07:59:36.009Z,2.90
2019-05-02T08:02:04.675Z,2.40
2019-05-02T08:04:33.433Z,3.20
2019-05-02T08:07:02.052Z,3.20
2019-05-02T08:09:30.751Z,3.83
2019-05-02T08:11:59.486Z,3.00
2019-05-02T08:14:29.403Z,3.00
2019-05-02T08:17:05.383Z,3.70
2019-05-02T08:19:28.878Z,3.53
2019-05-02T08:21:57.486Z,3.40
2019-05-02T08:24:26.133Z,3.63
2019-05-02T08:27:05.601Z,2.73
2019-05-02T08:29:35.499Z,3.07
2019-05-02T08:32:04.183Z,3.20
2019-05-02T08:34:33.196Z,4.50
2019-05-02T08:37:03.231Z,4.40
2019-05-02T08:39:33.941Z,4.00
2019-05-02T08:42:02.763Z,3.63
2019-05-02T08:44:31.427Z,3.87
2019-05-02T08:47:00.109Z,3.40
2019-05-02T08:49:28.773Z,2.90
2019-05-02T08:51:57.449Z,3.93
2019-05-02T08:54:28.050Z,3.87
2019-05-02T08:56:58.763Z,3.37
2019-05-02T08:59:26.882Z,4.43
2019-05-02T09:01:55.581Z,3.57
2019-05-02T09:04:28.987Z,3.50
2019-05-02T09:06:58.596Z,3.27
2019-05-02T09:09:28.039Z,3.73
2019-05-02T09:12:06.884Z,2.90
2019-05-02T09:14:25.793Z,3.53
2019-05-02T09:16:54.437Z,3.60
2019-05-02T09:19:26.434Z,3.47
2019-05-02T09:21:53.690Z,3.80
2019-05-02T09:24:23.976Z,3.50
2019-05-02T09:26:52.825Z,3.77
2019-05-02T09:29:22.291Z,4.00
2019-05-02T09:31:52.756Z,3.93
2019-05-02T09:34:22.780Z,3.40
2019-05-02T09:36:53.037Z,3.30
2019-05-02T09:39:22.694Z,3.10
2019-05-02T09:41:58.783Z,2.77
2019-05-02T09:44:29.202Z,3.10
2019-05-02T09:46:57.949Z,3.60
2019-05-02T09:49:26.678Z,3.27
2019-05-02T09:51:59.652Z,3.40
2019-05-02T09:54:25.726Z,2.57
2019-05-02T09:56:54.445Z,2.30
2019-05-02T09:59:30.078Z,2.60
2019-05-02T10:01:55.104Z,2.63
2019-05-02T10:04:23.966Z,2.20
2019-05-02T10:06:52.701Z,1.80
2019-05-02T10:09:24.002Z,2.47
2019-05-02T10:11:52.581Z,2.00
2019-05-02T10:14:22.581Z,2.40
2019-05-02T10:16:53.017Z,2.67
2019-05-02T10:19:25.867Z,2.30
2019-05-02T10:21:56.241Z,2.10
2019-05-02T10:24:23.399Z,2.53
2019-05-02T10:26:55.189Z,3.20
2019-05-02T10:29:28.085Z,2.27
2019-05-02T10:31:52.908Z,2.10
2019-05-02T10:34:22.608Z,2.60
2019-05-02T10:36:58.572Z,2.50
2019-05-02T10:39:23.781Z,2.40
2019-05-02T10:41:52.701Z,3.83
2019-05-02T10:44:22.544Z,2.27
2019-05-02T10:46:53.020Z,1.90
2019-05-02T10:49:26.385Z,2.20
2019-05-02T10:51:55.285Z,2.10
2019-05-02T10:54:28.002Z,2.40
2019-05-02T10:56:56.315Z,1.97
2019-05-02T10:59:25.089Z,2.27
2019-05-02T11:01:55.351Z,2.13
2019-05-02T11:04:29.026Z,2.13
2019-05-02T11:06:56.704Z,2.20
2019-05-02T11:09:26.381Z,2.03
2019-05-02T11:11:55.284Z,1.97
2019-05-02T11:14:25.845Z,1.60
2019-05-02T11:16:56.915Z,2.00
2019-05-02T11:19:46.814Z,2.20
2019-05-02T11:22:15.630Z,2.50
2019-05-02T11:24:44.343Z,1.93
2019-05-02T11:27:13.014Z,2.40
2019-05-02T11:29:42.549Z,1.80
2019-05-02T11:32:12.792Z,2.30
2019-05-02T11:34:42.119Z,2.20
2019-05-02T11:37:12.162Z,2.10
2019-05-02T11:39:46.561Z,2.07
2019-05-02T11:42:12.473Z,2.10
2019-05-02T11:44:41.900Z,1.70
2019-05-02T11:47:12.634Z,2.60
2019-05-02T11:49:42.536Z,2.20
2019-05-02T11:52:11.862Z,2.50
2019-05-02T11:54:44.672Z,1.57
2019-05-02T11:57:11.748Z,2.47
2019-05-02T11:59:42.419Z,2.57
2019-05-02T12:02:17.556Z,2.23
2019-05-02T12:04:47.371Z,2.50
2019-05-02T12:07:13.516Z,1.27
2019-05-02T12:09:51.002Z,2.40
2019-05-02T12:12:15.751Z,2.40
2019-05-02T12:14:44.541Z,1.80
2019-05-02T12:17:13.329Z,1.70
2019-05-02T12:19:42.616Z,1.73
2019-05-02T12:22:16.535Z,2.20
2019-05-02T12:24:45.299Z,1.67
2019-05-02T12:27:12.283Z,1.60
2019-05-02T12:29:42.355Z,1.63
2019-05-02T12:32:11.995Z,2.03
2019-05-02T12:34:42.071Z,1.40
2019-05-02T12:37:12.629Z,1.43
2019-05-02T12:39:42.573Z,1.40
2019-05-02T12:42:12.675Z,1.53
2019-05-02T12:44:44.194Z,2.37
2019-05-02T12:47:14.511Z,1.70
2019-05-02T12:49:45.738Z,1.60
2019-05-02T12:52:18.952Z,1.60
2019-05-02T12:54:47.633Z,1.70
2019-05-02T12:57:16.329Z,1.70
2019-05-02T12:59:52.455Z,2.13
2019-05-02T13:02:22.907Z,2.43
2019-05-02T13:04:52.719Z,1.80
2019-05-02T13:07:23.235Z,2.07
2019-05-02T13:09:52.809Z,1.20
2019-05-02T13:12:23.269Z,2.40
2019-05-02T13:14:52.881Z,1.90
2019-05-02T13:17:23.617Z,1.87
2019-05-02T13:19:57.051Z,1.97
2019-05-02T13:22:44.712Z,1.43
2019-05-02T13:25:14.900Z,2.40
2019-05-02T13:27:48.021Z,1.67
2019-05-02T13:30:25.253Z,2.47
2019-05-02T13:32:57.828Z,1.60
2019-05-02T13:35:27.413Z,1.83
2019-05-02T13:38:02.754Z,1.60
2019-05-02T13:40:36.302Z,1.63
2019-05-02T13:43:05.583Z,1.70
2019-05-02T13:45:54.090Z,1.60
2019-05-02T13:48:22.801Z,1.30
2019-05-02T13:50:51.902Z,2.00
2019-05-02T13:53:22.689Z,1.93
2019-05-02T13:55:55.524Z,1.77
2019-05-02T13:58:28.912Z,1.27
2019-05-02T14:00:54.740Z,1.63
2019-05-02T14:03:23.446Z,1.90
2019-05-02T14:05:53.873Z,1.50
2019-05-02T14:08:27.408Z,1.50
2019-05-02T14:10:58.934Z,1.30
2019-05-02T14:13:27.619Z,1.73
2019-05-02T14:15:56.241Z,1.50
2019-05-02T14:18:29.186Z,1.93
2019-05-02T14:20:55.284Z,1.50
2019-05-02T14:23:23.967Z,1.30
2019-05-02T14:25:52.672Z,2.30
2019-05-02T14:28:22.424Z,1.53
2019-05-02T14:30:52.538Z,1.27
2019-05-02T14:33:23.355Z,1.80
2019-05-02T14:35:52.703Z,1.60
2019-05-02T14:38:22.097Z,1.10
2019-05-02T14:41:04.918Z,2.10
2019-05-02T14:43:38.104Z,1.40
2019-05-02T14:46:05.573Z,1.50
2019-05-02T14:48:43.620Z,1.20
2019-05-02T14:51:11.886Z,1.70
2019-05-02T14:53:42.842Z,1.33
2019-05-02T14:56:12.710Z,2.17
2019-05-02T14:58:42.728Z,1.23
2019-05-02T15:01:16.877Z,1.03
2019-05-02T15:03:42.374Z,1.97
2019-05-02T15:06:11.674Z,1.90
2019-05-02T15:08:44.731Z,1.90
2019-05-02T15:11:12.612Z,1.30
2019-05-02T15:13:53.543Z,1.50
2019-05-02T15:16:26.244Z,1.60
2019-05-02T15:18:56.756Z,1.37
2019-05-02T15:21:24.939Z,1.17
2019-05-02T15:23:57.761Z,1.30
2019-05-02T15:26:26.327Z,1.57
2019-05-02T15:28:54.661Z,1.30
2019-05-02T15:31:28.453Z,1.50
2019-05-02T15:34:15.706Z,1.00
2019-05-02T15:36:45.860Z,1.77
2019-05-02T15:41:49.254Z,1.73
2019-05-02T15:44:18.886Z,1.80
2019-05-02T15:46:48.289Z,2.00
2019-05-02T15:49:17.088Z,2.07
2019-05-02T15:51:49.652Z,1.73
2019-05-02T15:54:18.968Z,1.63
2019-05-02T15:57:00.442Z,1.50
2019-05-02T15:59:44.824Z,2.10
2019-05-02T16:02:08.609Z,1.67
2019-05-02T16:04:39.018Z,3.83
2019-05-02T16:07:08.543Z,2.93
2019-05-02T16:09:37.478Z,2.17
2019-05-02T16:12:06.085Z,2.10
2019-05-02T16:14:37.795Z,1.73
2019-05-02T16:17:06.596Z,1.37
2019-05-02T16:19:36.833Z,1.40
2019-05-02T16:22:16.601Z,1.70
2019-05-02T16:24:48.871Z,1.60
2019-05-02T16:27:16.442Z,1.80
2019-05-02T16:29:46.475Z,1.90
2019-05-02T16:32:19.456Z,2.10
2019-05-02T16:34:58.964Z,2.20
2019-05-02T16:37:29.508Z,1.40
2019-05-02T16:39:58.454Z,2.03
2019-05-02T16:42:27.332Z,1.60
2019-05-02T16:44:56.145Z,1.77
2019-05-02T16:47:24.836Z,2.53
2019-05-02T16:49:56.406Z,2.20
2019-05-02T16:52:23.982Z,1.77
2019-05-02T16:54:52.866Z,2.07
2019-05-02T16:57:22.133Z,1.73
2019-05-02T16:59:53.997Z,2.00
2019-05-02T17:02:21.951Z,1.67
2019-05-02T17:04:54.207Z,1.83
2019-05-02T17:07:22.923Z,2.33
2019-05-02T17:09:59.191Z,1.60
2019-05-02T17:12:27.902Z,1.90
2019-05-02T17:15:14.395Z,1.70
2019-05-02T17:17:43.116Z,2.37
2019-05-02T17:20:16.249Z,1.90
2019-05-02T17:22:44.463Z,2.10
2019-05-02T17:25:12.878Z,1.83
2019-05-02T17:27:42.604Z,2.40
2019-05-02T17:30:12.316Z,2.47
2019-05-02T17:32:41.556Z,2.53
2019-05-02T17:35:12.330Z,2.60
2019-05-02T17:37:48.714Z,2.63
2019-05-02T17:40:12.340Z,2.17
2019-05-02T17:42:45.032Z,2.20
2019-05-02T17:45:14.252Z,2.07
2019-05-02T17:47:42.980Z,2.40
2019-05-02T17:50:19.411Z,1.70
2019-05-02T17:52:56.174Z,2.67
2019-05-02T17:55:25.466Z,3.23
2019-05-02T17:57:54.076Z,3.43
2019-05-02T18:00:27.160Z,1.80
2019-05-02T18:02:55.808Z,2.33
2019-05-02T18:05:26.410Z,2.77
2019-05-02T18:07:55.000Z,2.73
2019-05-02T18:10:25.087Z,2.60
2019-05-02T18:12:58.270Z,2.10
2019-05-02T18:15:24.455Z,3.67
2019-05-02T18:17:53.180Z,4.10
2019-05-02T18:20:22.040Z,3.40
2019-05-02T18:22:51.951Z,4.73
2019-05-02T18:25:25.146Z,5.07
2019-05-02T18:27:51.913Z,6.53
2019-05-02T18:30:26.763Z,6.80
2019-05-02T18:32:52.999Z,5.20
2019-05-02T18:35:22.745Z,4.40
2019-05-02T18:37:52.008Z,2.90
2019-05-02T18:40:27.853Z,2.50
2019-05-02T18:42:56.522Z,3.03
2019-05-02T18:45:28.549Z,2.00
2019-05-02T18:48:02.163Z,2.50
2019-05-02T18:50:31.913Z,2.77
2019-05-02T18:53:05.081Z,2.83
2019-05-02T18:55:33.898Z,2.13
2019-05-02T18:58:05.369Z,2.80
2019-05-02T19:00:39.522Z,2.57
2019-05-02T19:03:13.449Z,2.43
2019-05-02T19:05:42.085Z,2.23
2019-05-02T19:08:12.091Z,2.40
2019-05-02T19:10:42.474Z,2.90
2019-05-02T19:13:13.312Z,2.50
2019-05-02T19:15:45.179Z,3.30
2019-05-02T19:18:17.991Z,3.13
2019-05-02T19:20:57.386Z,2.80
2019-05-02T19:23:25.722Z,3.57
2019-05-02T19:25:55.798Z,2.83
2019-05-02T19:28:39.943Z,3.03
2019-05-02T19:31:11.008Z,2.40
2019-05-02T19:33:42.676Z,2.90
2019-05-02T19:36:16.220Z,2.60
2019-05-02T19:38:44.939Z,2.37
2019-05-02T19:41:15.335Z,3.93
2019-05-02T19:43:49.292Z,2.67
2019-05-02T19:46:18.367Z,3.53
2019-05-02T19:48:50.349Z,3.10
2019-05-02T19:51:22.549Z,2.70
2019-05-02T19:53:59.652Z,2.60
2019-05-02T19:56:24.241Z,4.07
2019-05-02T19:58:54.976Z,7.00
2019-05-02T20:01:26.677Z,5.13
2019-05-02T20:03:56.858Z,17.83
2019-05-02T20:06:27.011Z,19.87
2019-05-02T20:08:59.206Z,13.77
2019-05-02T20:14:21.807Z,3.73
2019-05-02T20:16:52.992Z,3.47
2019-05-02T20:19:25.701Z,4.13
2019-05-02T20:21:57.187Z,3.57
2019-05-02T20:24:28.067Z,3.53
2019-05-02T20:26:58.960Z,3.70
2019-05-02T20:29:28.712Z,8.07
2019-05-02T20:31:59.907Z,8.27
2019-05-02T20:34:32.498Z,7.80
2019-05-02T20:37:02.881Z,4.47
2019-05-02T20:39:32.857Z,3.90
2019-05-02T20:42:02.669Z,3.13
2019-05-02T20:44:32.101Z,4.10
2019-05-02T20:47:02.603Z,3.30
2019-05-02T20:49:33.393Z,3.20
2019-05-02T20:52:02.428Z,3.60
2019-05-02T20:54:32.292Z,3.33
2019-05-02T20:57:02.581Z,3.87
2019-05-02T20:59:36.524Z,3.97
2019-05-02T21:02:06.001Z,3.67
2019-05-02T21:04:35.537Z,2.40
2019-05-02T21:07:10.047Z,4.27
2019-05-02T21:09:52.351Z,5.10
2019-05-02T21:12:21.313Z,4.50
2019-05-02T21:14:49.974Z,3.93
2019-05-02T21:17:22.094Z,4.00
2019-05-02T21:19:51.963Z,4.00
2019-05-02T21:22:23.539Z,4.47
2019-05-02T21:24:53.358Z,4.23
2019-05-02T21:27:22.438Z,4.70
2019-05-02T21:29:52.526Z,3.90
2019-05-02T21:32:25.662Z,4.83
2019-05-02T21:34:57.516Z,3.97
2019-05-02T21:37:26.239Z,4.10
2019-05-02T21:39:54.906Z,5.07
2019-05-02T21:42:23.522Z,4.20
2019-05-02T21:44:52.207Z,4.10
2019-05-02T21:47:22.569Z,3.50
2019-05-02T21:50:04.760Z,2.47
2019-05-02T21:52:47.277Z,3.60
2019-05-02T21:55:32.528Z,3.00
2019-05-02T21:58:02.751Z,3.00
2019-05-02T22:00:49.151Z,2.47
2019-05-02T22:03:17.968Z,3.83
2019-05-02T22:05:46.589Z,3.10
2019-05-02T22:08:16.866Z,3.23
2019-05-02T22:10:45.516Z,4.07
2019-05-02T22:13:14.166Z,3.97
2019-05-02T22:15:43.054Z,3.83
2019-05-02T22:18:11.724Z,3.50
2019-05-02T22:20:40.523Z,5.60
2019-05-02T22:23:09.270Z,4.27
2019-05-02T22:25:37.899Z,4.50
2019-05-02T22:28:06.563Z,4.43
2019-05-02T22:30:35.198Z,4.60
2019-05-02T22:33:03.880Z,5.60
2019-05-02T22:35:32.521Z,3.90
2019-05-02T22:38:05.431Z,4.27
2019-05-02T22:40:34.047Z,4.20
2019-05-02T22:43:04.627Z,6.00
2019-05-02T22:45:35.377Z,4.33
2019-05-02T22:48:04.398Z,4.00
2019-05-02T22:50:33.085Z,5.37
2019-05-02T22:53:01.773Z,4.20
2019-05-02T22:55:32.863Z,5.13
2019-05-02T22:58:02.337Z,4.70
2019-05-02T23:00:32.208Z,5.17
2019-05-02T23:03:01.841Z,4.87
2019-05-02T23:05:32.088Z,5.67
2019-05-02T23:08:02.314Z,5.23
2019-05-02T23:10:32.664Z,4.43
2019-05-02T23:13:02.415Z,4.60
2019-05-02T23:15:32.097Z,4.17
2019-05-02T23:18:01.666Z,4.17
2019-05-02T23:20:32.797Z,4.80
2019-05-02T23:23:03.844Z,5.10
2019-05-02T23:25:49.062Z,4.70
2019-05-02T23:28:28.269Z,5.30
2019-05-02T23:30:56.929Z,5.20
2019-05-02T23:33:27.197Z,4.63
2019-05-02T23:35:57.283Z,5.10
2019-05-02T23:38:25.965Z,5.47
2019-05-02T23:40:54.603Z,4.63
2019-05-02T23:43:23.304Z,5.90
2019-05-02T23:45:51.985Z,4.70
2019-05-02T23:48:22.096Z,5.17
2019-05-02T23:50:52.111Z,4.83
2019-05-02T23:53:22.110Z,5.47
2019-05-02T23:55:50.960Z,6.00
2019-05-02T23:58:19.625Z,4.60
